Time;durP1;ratioP1;P1;durP2;ratioP2;P2;SDS_P1;SDS_P2;PMS_P1;PMS_P2;Temp;Humidity;BMP_temperature;BMP_pressure;BME280_temperature;BME280_humidity;BME280_pressure;Samples;Min_cycle;Max_cycle;Signal;HPM_P1;HPM_P2
2023/03/13 00:00:29;;;;;;;4.28;2.60;;;;;;;;;;5075906;28;20028;-82
2023/03/13 00:02:54;;;;;;;4.00;2.42;;;;;;;;;;5085247;28;20103;-83
2023/03/13 00:05:20;;;;;;;3.53;2.50;;;;;;;;;;5078051;28;20032;-84
2023/03/13 00:07:45;;;;;;;5.03;2.60;;;;;;;;;;5078482;28;20115;-83
2023/03/13 00:10:11;;;;;;;3.67;2.50;;;;;;;;;;5079254;28;20634;-82
2023/03/13 00:12:36;;;;;;;4.22;2.60;;;;;;;;;;5060409;28;20029;-84
2023/03/13 00:15:02;;;;;;;3.03;2.20;;;;;;;;;;5080170;28;20404;-83
2023/03/13 00:17:28;;;;;;;3.47;2.25;;;;;;;;;;5061971;28;20488;-82
2023/03/13 00:19:54;;;;;;;3.30;2.15;;;;;;;;;;5061902;28;20039;-83
2023/03/13 00:22:20;;;;;;;4.18;2.20;;;;;;;;;;5080252;28;20044;-83
2023/03/13 00:24:45;;;;;;;3.47;2.33;;;;;;;;;;5080391;28;20041;-84
2023/03/13 00:27:11;;;;;;;3.15;2.30;;;;;;;;;;5045905;28;20137;-84
2023/03/13 00:29:36;;;;;;;3.70;2.50;;;;;;;;;;5063379;28;20036;-84
2023/03/13 00:32:02;;;;;;;3.92;2.30;;;;;;;;;;5062988;28;20050;-83
2023/03/13 00:34:27;;;;;;;3.80;2.38;;;;;;;;;;5063206;28;20082;-83
2023/03/13 00:36:54;;;;;;;3.13;2.03;;;;;;;;;;5064024;28;20051;-84
2023/03/13 00:39:21;;;;;;;3.47;2.30;;;;;;;;;;5048393;28;20377;-84
2023/03/13 00:41:47;;;;;;;3.15;2.00;;;;;;;;;;5065580;28;20043;-83
2023/03/13 00:44:13;;;;;;;4.22;2.40;;;;;;;;;;5065820;28;20052;-84
2023/03/13 00:46:38;;;;;;;3.55;2.30;;;;;;;;;;5049914;28;20066;-83
2023/03/13 00:49:04;;;;;;;3.60;2.45;;;;;;;;;;5069661;28;20036;-83
2023/03/13 00:51:32;;;;;;;3.08;1.98;;;;;;;;;;5087476;28;20440;-83
2023/03/13 00:53:59;;;;;;;3.20;2.13;;;;;;;;;;5068777;28;20047;-84
2023/03/13 00:56:26;;;;;;;2.85;1.95;;;;;;;;;;5072086;28;20040;-82
2023/03/13 00:58:51;;;;;;;2.90;2.10;;;;;;;;;;5084569;28;20036;-84
2023/03/13 01:01:20;;;;;;;2.78;2.10;;;;;;;;;;5067950;28;20098;-84
2023/03/13 01:03:50;;;;;;;3.05;2.00;;;;;;;;;;5066071;28;20036;-84
2023/03/13 01:06:19;;;;;;;3.47;2.33;;;;;;;;;;5067023;28;20082;-84
2023/03/13 01:08:45;;;;;;;3.53;2.47;;;;;;;;;;5065925;28;20508;-83
2023/03/13 01:11:14;;;;;;;3.13;2.25;;;;;;;;;;5059461;28;20033;-82
2023/03/13 01:13:39;;;;;;;4.22;2.45;;;;;;;;;;5073627;28;20040;-83
2023/03/13 01:16:08;;;;;;;3.53;2.40;;;;;;;;;;5072736;28;20050;-83
2023/03/13 01:18:35;;;;;;;4.47;2.47;;;;;;;;;;5086968;28;20439;-84
2023/03/13 01:21:01;;;;;;;4.82;2.63;;;;;;;;;;5065542;28;20037;-83
2023/03/13 01:23:27;;;;;;;4.82;2.58;;;;;;;;;;5083775;28;20036;-84
2023/03/13 01:25:56;;;;;;;3.53;2.38;;;;;;;;;;5064340;28;20032;-84
2023/03/13 01:28:23;;;;;;;3.58;2.35;;;;;;;;;;5064723;28;20101;-83
2023/03/13 01:30:49;;;;;;;3.42;2.28;;;;;;;;;;5063797;28;20020;-83
2023/03/13 01:33:15;;;;;;;3.28;2.20;;;;;;;;;;5064865;28;20464;-84
2023/03/13 01:35:40;;;;;;;3.72;2.05;;;;;;;;;;5046753;28;20499;-83
2023/03/13 01:38:06;;;;;;;3.03;2.13;;;;;;;;;;5063512;28;20024;-83
2023/03/13 01:40:39;;;;;;;3.30;2.15;;;;;;;;;;5081389;28;20044;-85
2023/03/13 01:43:31;;;;;;;2.90;2.00;;;;;;;;;;5046579;28;20039;-83
2023/03/13 01:46:04;;;;;;;2.83;1.90;;;;;;;;;;5062988;28;20068;-83
2023/03/13 01:48:55;;;;;;;3.85;2.40;;;;;;;;;;5065459;28;20032;-85
2023/03/13 01:51:42;;;;;;;2.97;1.92;;;;;;;;;;5065651;28;20025;-84
2023/03/13 01:54:16;;;;;;;3.55;2.28;;;;;;;;;;5065892;28;20048;-82
2023/03/13 01:56:47;;;;;;;3.42;2.10;;;;;;;;;;5066529;28;20490;-86
2023/03/13 01:59:22;;;;;;;3.20;2.15;;;;;;;;;;5069244;28;20037;-83
2023/03/13 02:01:49;;;;;;;3.70;2.20;;;;;;;;;;5063076;28;20121;-84
2023/03/13 02:04:18;;;;;;;3.17;2.13;;;;;;;;;;5060654;28;20032;-83
2023/03/13 02:06:47;;;;;;;2.92;2.10;;;;;;;;;;5079390;28;20039;-84
2023/03/13 02:09:18;;;;;;;2.70;1.73;;;;;;;;;;5041281;28;20037;-83
2023/03/13 02:11:53;;;;;;;2.70;2.00;;;;;;;;;;5076137;28;20032;-84
2023/03/13 02:14:22;;;;;;;2.92;1.90;;;;;;;;;;5057615;28;20488;-84
2023/03/13 02:16:50;;;;;;;2.45;1.73;;;;;;;;;;5059055;28;20447;-85
2023/03/13 02:19:24;;;;;;;2.25;1.70;;;;;;;;;;5057013;28;20033;-84
2023/03/13 02:22:31;;;;;;;2.45;1.60;;;;;;;;;;5056594;28;20097;-85
2023/03/13 02:25:15;;;;;;;2.42;1.73;;;;;;;;;;5013881;28;20072;-84
2023/03/13 02:27:42;;;;;;;2.45;1.80;;;;;;;;;;5054906;28;20557;-84
2023/03/13 02:30:09;;;;;;;2.92;1.95;;;;;;;;;;5039222;28;20040;-83
2023/03/13 02:32:35;;;;;;;3.05;1.95;;;;;;;;;;5053722;28;20037;-82
2023/03/13 02:35:07;;;;;;;2.78;1.92;;;;;;;;;;5067236;28;20502;-85
2023/03/13 02:37:33;;;;;;;2.83;1.83;;;;;;;;;;5061343;28;20036;-84
2023/03/13 02:40:01;;;;;;;2.22;1.67;;;;;;;;;;5061845;28;20040;-83
2023/03/13 02:42:29;;;;;;;2.67;1.92;;;;;;;;;;5062424;28;20039;-83
2023/03/13 02:44:54;;;;;;;2.33;1.65;;;;;;;;;;5062838;28;20534;-85
2023/03/13 02:47:22;;;;;;;2.30;1.80;;;;;;;;;;5063569;28;20040;-84
2023/03/13 02:49:49;;;;;;;2.53;1.80;;;;;;;;;;5063591;28;20393;-84
2023/03/13 02:52:18;;;;;;;3.00;1.80;;;;;;;;;;5064590;28;20036;-84
2023/03/13 02:54:48;;;;;;;2.55;1.67;;;;;;;;;;5064587;28;20056;-85
2023/03/13 02:57:14;;;;;;;3.50;1.80;;;;;;;;;;5065882;28;20033;-84
2023/03/13 02:59:40;;;;;;;3.13;1.92;;;;;;;;;;5052460;28;20023;-86
2023/03/13 03:02:05;;;;;;;2.70;1.73;;;;;;;;;;5054820;28;20059;-84
2023/03/13 03:04:31;;;;;;;2.60;1.80;;;;;;;;;;5069380;28;20040;-84
2023/03/13 03:06:56;;;;;;;2.63;1.60;;;;;;;;;;5080300;28;20033;-85
2023/03/13 03:09:23;;;;;;;3.05;1.90;;;;;;;;;;5062837;28;20036;-85
2023/03/13 03:11:53;;;;;;;3.47;1.90;;;;;;;;;;5045991;28;20064;-83
2023/03/13 03:14:19;;;;;;;4.00;1.92;;;;;;;;;;5061577;28;20028;-84
2023/03/13 03:16:46;;;;;;;2.38;1.90;;;;;;;;;;5062175;28;20037;-84
2023/03/13 03:19:11;;;;;;;2.80;2.00;;;;;;;;;;5080513;23;20100;-84
2023/03/13 03:21:37;;;;;;;3.22;2.17;;;;;;;;;;5067520;28;20040;-85
2023/03/13 03:24:03;;;;;;;3.15;2.10;;;;;;;;;;5050423;28;20462;-83
2023/03/13 03:26:29;;;;;;;3.03;2.10;;;;;;;;;;5068803;28;20063;-84
2023/03/13 03:28:54;;;;;;;3.22;2.17;;;;;;;;;;5051469;28;20034;-83
2023/03/13 03:31:20;;;;;;;3.60;2.10;;;;;;;;;;5031800;28;20040;-84
2023/03/13 03:33:46;;;;;;;2.83;1.90;;;;;;;;;;5048234;28;20029;-84
2023/03/13 03:36:17;;;;;;;3.72;2.00;;;;;;;;;;5031283;28;20041;-84
2023/03/13 03:38:44;;;;;;;2.88;2.03;;;;;;;;;;5047494;28;20035;-84
2023/03/13 03:41:13;;;;;;;3.00;1.98;;;;;;;;;;5047542;28;20029;-84
2023/03/13 03:43:39;;;;;;;3.25;1.90;;;;;;;;;;5047663;28;20066;-84
2023/03/13 03:46:06;;;;;;;3.00;1.80;;;;;;;;;;5031707;28;20040;-84
2023/03/13 03:48:32;;;;;;;2.33;1.80;;;;;;;;;;5047097;28;20032;-84
2023/03/13 03:50:58;;;;;;;2.20;1.60;;;;;;;;;;5048110;28;20072;-84
2023/03/13 03:53:25;;;;;;;3.38;2.00;;;;;;;;;;5048007;28;20029;-83
2023/03/13 03:55:51;;;;;;;2.00;1.60;;;;;;;;;;5047046;28;20033;-84
2023/03/13 03:58:17;;;;;;;2.88;1.95;;;;;;;;;;5047073;28;20059;-85
2023/03/13 04:01:11;;;;;;;3.20;1.98;;;;;;;;;;5049082;28;20036;-83
2023/03/13 04:03:37;;;;;;;3.25;1.92;;;;;;;;;;5047306;28;20044;-83
2023/03/13 04:06:03;;;;;;;2.35;1.55;;;;;;;;;;5045839;28;20048;-82
2023/03/13 04:08:29;;;;;;;2.80;2.00;;;;;;;;;;5046396;28;20039;-83
2023/03/13 04:10:55;;;;;;;3.20;1.90;;;;;;;;;;5046000;28;20558;-83
2023/03/13 04:13:22;;;;;;;3.03;1.80;;;;;;;;;;5046806;28;20033;-84
2023/03/13 04:15:49;;;;;;;3.17;2.10;;;;;;;;;;5044919;28;20047;-84
2023/03/13 04:18:15;;;;;;;2.70;2.00;;;;;;;;;;5046935;28;20025;-84
2023/03/13 04:20:42;;;;;;;3.05;2.30;;;;;;;;;;5045446;28;20033;-84
2023/03/13 04:23:08;;;;;;;2.97;1.92;;;;;;;;;;5046283;28;20056;-83
2023/03/13 04:25:34;;;;;;;3.00;2.00;;;;;;;;;;5063471;28;20112;-83
2023/03/13 04:28:01;;;;;;;3.10;2.03;;;;;;;;;;5047138;28;20119;-82
2023/03/13 04:30:33;;;;;;;5.72;2.35;;;;;;;;;;5046060;28;20037;-83
2023/03/13 04:33:23;;;;;;;2.58;1.85;;;;;;;;;;5031519;28;20045;-84
2023/03/13 04:36:08;;;;;;;3.17;1.98;;;;;;;;;;5048492;28;20078;-84
2023/03/13 04:38:52;;;;;;;3.38;2.20;;;;;;;;;;5064582;28;20074;-83
2023/03/13 04:41:36;;;;;;;3.53;1.90;;;;;;;;;;5045494;28;20132;-84
2023/03/13 04:44:30;;;;;;;2.80;1.90;;;;;;;;;;5046525;28;20063;-84
2023/03/13 04:47:04;;;;;;;2.83;1.98;;;;;;;;;;5046187;28;20033;-84
2023/03/13 04:49:58;;;;;;;2.65;1.90;;;;;;;;;;5009189;28;20050;-84
2023/03/13 04:52:39;;;;;;;5.80;2.33;;;;;;;;;;5034091;28;20111;-83
2023/03/13 04:55:17;;;;;;;2.70;2.00;;;;;;;;;;5025598;28;20037;-83
2023/03/13 04:57:59;;;;;;;4.05;2.30;;;;;;;;;;5041810;28;20067;-83
2023/03/13 05:00:39;;;;;;;3.85;2.20;;;;;;;;;;5042950;28;20044;-84
2023/03/13 05:03:44;;;;;;;3.22;2.10;;;;;;;;;;4974348;28;20095;-83
2023/03/13 05:06:29;;;;;;;2.88;1.95;;;;;;;;;;4964065;28;20045;-82
2023/03/13 05:09:09;;;;;;;3.05;1.75;;;;;;;;;;5024624;28;20041;-84
2023/03/13 05:11:55;;;;;;;2.28;1.70;;;;;;;;;;5045089;28;20044;-85
2023/03/13 05:14:36;;;;;;;3.88;2.10;;;;;;;;;;5043168;28;20101;-84
2023/03/13 05:17:28;;;;;;;3.65;2.20;;;;;;;;;;5020900;28;20092;-82
2023/03/13 05:20:26;;;;;;;3.47;1.95;;;;;;;;;;5009683;28;20042;-84
2023/03/13 05:23:11;;;;;;;5.13;2.83;;;;;;;;;;5018530;28;20539;-84
2023/03/13 05:26:00;;;;;;;4.00;2.55;;;;;;;;;;5038926;28;20043;-83
2023/03/13 05:28:40;;;;;;;3.13;2.20;;;;;;;;;;5043264;28;20041;-84
2023/03/13 05:31:26;;;;;;;4.75;2.30;;;;;;;;;;5020895;28;20071;-83
2023/03/13 05:34:12;;;;;;;4.75;2.65;;;;;;;;;;5042871;28;20065;-84
2023/03/13 05:36:40;;;;;;;6.07;3.45;;;;;;;;;;5043379;28;20049;-82
2023/03/13 05:39:31;;;;;;;3.30;2.35;;;;;;;;;;5025905;28;20026;-83
2023/03/13 05:42:15;;;;;;;6.03;2.60;;;;;;;;;;5044983;28;20091;-83
2023/03/13 05:44:50;;;;;;;5.15;2.13;;;;;;;;;;5041612;28;20037;-83
2023/03/13 05:47:17;;;;;;;3.65;2.08;;;;;;;;;;5043959;28;20528;-84
2023/03/13 05:50:04;;;;;;;4.05;2.22;;;;;;;;;;5017281;28;20037;-84
2023/03/13 05:52:59;;;;;;;5.25;2.30;;;;;;;;;;4990021;28;20439;-84
2023/03/13 05:55:38;;;;;;;2.75;1.60;;;;;;;;;;5044097;28;20072;-85
2023/03/13 05:58:15;;;;;;;2.50;1.80;;;;;;;;;;5011390;28;20029;-86
2023/03/13 06:01:11;;;;;;;3.72;1.70;;;;;;;;;;5041965;28;20041;-85
2023/03/13 06:03:51;;;;;;;2.67;1.83;;;;;;;;;;5041883;28;20029;-84
2023/03/13 06:06:18;;;;;;;2.78;1.80;;;;;;;;;;5042892;28;20033;-84
2023/03/13 06:08:48;;;;;;;2.97;1.80;;;;;;;;;;5043468;28;20026;-83
2023/03/13 06:11:13;;;;;;;2.63;1.65;;;;;;;;;;5043094;28;20060;-84
2023/03/13 06:13:39;;;;;;;4.30;1.95;;;;;;;;;;5026213;28;20033;-85
2023/03/13 06:16:20;;;;;;;2.60;1.70;;;;;;;;;;5043810;28;20036;-84
2023/03/13 06:18:47;;;;;;;4.95;1.60;;;;;;;;;;5042435;28;20037;-84
2023/03/13 06:21:12;;;;;;;2.97;1.60;;;;;;;;;;5043674;28;20037;-84
2023/03/13 06:23:38;;;;;;;3.45;1.33;;;;;;;;;;5026093;28;20041;-84
2023/03/13 06:26:04;;;;;;;2.55;1.60;;;;;;;;;;5042522;28;20091;-83
2023/03/13 06:28:30;;;;;;;2.63;1.60;;;;;;;;;;5040865;28;20029;-84
2023/03/13 06:31:03;;;;;;;2.38;1.70;;;;;;;;;;5043057;28;20025;-83
2023/03/13 06:33:29;;;;;;;;;;;;;;;;;;5046378;28;20059;-84
2023/03/13 06:35:56;;;;;;;2.63;1.40;;;;;;;;;;5030123;28;19951;-84
2023/03/13 06:38:21;;;;;;;1.83;1.23;;;;;;;;;;5047361;28;20034;-84
2023/03/13 06:40:47;;;;;;;1.88;1.17;;;;;;;;;;5045257;28;20049;-84
2023/03/13 06:43:12;;;;;;;1.90;1.05;;;;;;;;;;5045576;28;20030;-83
2023/03/13 06:45:38;;;;;;;2.65;1.23;;;;;;;;;;5026835;28;20516;-84
2023/03/13 06:48:03;;;;;;;1.42;0.93;;;;;;;;;;5026382;28;20034;-84
2023/03/13 06:50:29;;;;;;;1.10;0.90;;;;;;;;;;5044511;28;20046;-84
2023/03/13 06:52:56;;;;;;;1.40;0.80;;;;;;;;;;5044192;28;20044;-81
2023/03/13 06:55:22;;;;;;;1.27;0.90;;;;;;;;;;5027449;28;20061;-84
2023/03/13 06:57:51;;;;;;;2.92;1.40;;;;;;;;;;5043782;28;20037;-82
2023/03/13 07:00:18;;;;;;;4.28;1.30;;;;;;;;;;5046793;28;20092;-83
2023/03/13 07:02:44;;;;;;;1.73;0.98;;;;;;;;;;5045476;28;20043;-83
2023/03/13 07:05:09;;;;;;;5.93;1.85;;;;;;;;;;5044039;28;20519;-83
2023/03/13 07:07:35;;;;;;;4.28;1.70;;;;;;;;;;5027009;28;20071;-84
2023/03/13 07:10:00;;;;;;;3.03;1.55;;;;;;;;;;5045545;28;20044;-84
2023/03/13 07:12:26;;;;;;;3.38;1.58;;;;;;;;;;5043083;28;20048;-83
2023/03/13 07:14:52;;;;;;;1.92;1.13;;;;;;;;;;5044583;28;20041;-84
2023/03/13 07:17:17;;;;;;;2.20;1.10;;;;;;;;;;5047565;28;20026;-83
2023/03/13 07:19:43;;;;;;;1.58;1.05;;;;;;;;;;5044035;28;20036;-84
2023/03/13 07:22:08;;;;;;;1.42;1.00;;;;;;;;;;5045576;28;20405;-84
2023/03/13 07:24:34;;;;;;;1.10;0.90;;;;;;;;;;5028011;28;20056;-83
2023/03/13 07:26:59;;;;;;;1.20;0.93;;;;;;;;;;5027484;28;20402;-84
2023/03/13 07:29:25;;;;;;;1.45;1.02;;;;;;;;;;5043757;28;20053;-84
2023/03/13 07:31:50;;;;;;;1.25;0.85;;;;;;;;;;5027618;28;20121;-82
2023/03/13 07:34:16;;;;;;;1.15;0.88;;;;;;;;;;5043234;28;20029;-84
2023/03/13 07:36:42;;;;;;;0.90;0.80;;;;;;;;;;5045869;28;20460;-83
2023/03/13 07:39:08;;;;;;;0.70;0.60;;;;;;;;;;5026804;28;20060;-82
2023/03/13 07:41:33;;;;;;;1.13;0.75;;;;;;;;;;5044663;28;20026;-84
2023/03/13 07:43:59;;;;;;;0.93;0.65;;;;;;;;;;5025747;28;20060;-83
2023/03/13 07:46:24;;;;;;;0.73;0.73;;;;;;;;;;5044285;28;20041;-83
2023/03/13 07:48:51;;;;;;;0.77;0.70;;;;;;;;;;5046454;28;20025;-84
2023/03/13 07:51:22;;;;;;;1.40;0.82;;;;;;;;;;5029765;28;20089;-84
2023/03/13 07:53:49;;;;;;;2.42;0.80;;;;;;;;;;5046338;28;20057;-84
2023/03/13 07:56:17;;;;;;;2.22;1.10;;;;;;;;;;5046193;28;20033;-84
2023/03/13 07:58:43;;;;;;;1.50;1.10;;;;;;;;;;5062389;28;20028;-83
2023/03/13 08:01:19;;;;;;;1.00;0.90;;;;;;;;;;5062615;28;20033;-83
2023/03/13 08:03:47;;;;;;;1.17;0.90;;;;;;;;;;5044530;28;20033;-84
2023/03/13 08:06:15;;;;;;;1.67;1.02;;;;;;;;;;5044518;28;20044;-84
2023/03/13 08:08:41;;;;;;;1.00;0.80;;;;;;;;;;5025850;28;20033;-85
2023/03/13 08:11:13;;;;;;;2.17;0.70;;;;;;;;;;5025635;28;20033;-84
2023/03/13 08:13:40;;;;;;;0.70;0.70;;;;;;;;;;5025963;28;20032;-84
2023/03/13 08:16:14;;;;;;;1.00;0.90;;;;;;;;;;5044019;28;20037;-85
2023/03/13 08:18:43;;;;;;;0.90;0.80;;;;;;;;;;5061968;28;20044;-84
2023/03/13 08:21:11;;;;;;;1.58;0.95;;;;;;;;;;5044201;28;20032;-83
2023/03/13 08:23:37;;;;;;;1.20;0.80;;;;;;;;;;5027966;28;20032;-83
2023/03/13 08:26:14;;;;;;;1.20;0.88;;;;;;;;;;5061820;28;20044;-83
2023/03/13 08:28:41;;;;;;;1.02;0.77;;;;;;;;;;5027482;28;20025;-84
2023/03/13 08:31:18;;;;;;;2.83;0.80;;;;;;;;;;5043932;28;20048;-82
2023/03/13 08:33:45;;;;;;;2.25;1.25;;;;;;;;;;5063590;28;20120;-85
2023/03/13 08:36:14;;;;;;;0.98;0.88;;;;;;;;;;5044002;28;20033;-84
2023/03/13 08:38:45;;;;;;;1.00;0.80;;;;;;;;;;5062041;28;20108;-85
2023/03/13 08:41:12;;;;;;;2.17;1.00;;;;;;;;;;5044123;28;20048;-84
2023/03/13 08:43:38;;;;;;;5.38;1.40;;;;;;;;;;5062410;28;20039;-85
2023/03/13 08:46:04;;;;;;;1.00;0.90;;;;;;;;;;5027900;28;20016;-83
2023/03/13 08:48:29;;;;;;;1.55;1.20;;;;;;;;;;5028848;28;20037;-82
2023/03/13 08:51:18;;;;;;;1.50;0.80;;;;;;;;;;5046658;28;20071;-84
2023/03/13 08:53:45;;;;;;;1.50;0.90;;;;;;;;;;5029985;28;20079;-84
2023/03/13 08:56:13;;;;;;;1.35;0.90;;;;;;;;;;5029479;28;20493;-86
2023/03/13 08:58:39;;;;;;;1.40;1.00;;;;;;;;;;5043695;28;20048;-85
2023/03/13 09:01:07;;;;;;;1.45;0.90;;;;;;;;;;5027495;28;20037;-83
2023/03/13 09:03:33;;;;;;;0.93;0.85;;;;;;;;;;5043710;28;20040;-85
2023/03/13 09:06:00;;;;;;;0.98;0.82;;;;;;;;;;5042319;28;20033;-86
2023/03/13 09:08:27;;;;;;;0.90;0.77;;;;;;;;;;5042851;28;20115;-85
2023/03/13 09:10:57;;;;;;;0.80;0.70;;;;;;;;;;5041420;28;20091;-85
2023/03/13 09:13:23;;;;;;;1.05;0.80;;;;;;;;;;5024967;28;20495;-85
2023/03/13 09:15:59;;;;;;;0.77;0.65;;;;;;;;;;5058911;28;20053;-86
2023/03/13 09:18:26;;;;;;;1.23;0.90;;;;;;;;;;5041757;28;20047;-86
2023/03/13 09:20:52;;;;;;;0.90;0.70;;;;;;;;;;5040532;28;20068;-86
2023/03/13 09:23:18;;;;;;;1.38;0.70;;;;;;;;;;5069244;23;20052;-85
2023/03/13 09:25:43;;;;;;;1.20;0.90;;;;;;;;;;5055658;28;20510;-83
2023/03/13 09:28:09;;;;;;;1.30;0.90;;;;;;;;;;5074312;28;20111;-84
2023/03/13 09:30:34;;;;;;;0.90;0.77;;;;;;;;;;5072931;28;20033;-85
2023/03/13 09:33:00;;;;;;;0.80;0.70;;;;;;;;;;5055066;28;20491;-85
2023/03/13 09:35:25;;;;;;;1.08;0.80;;;;;;;;;;5038758;28;20495;-85
2023/03/13 09:37:51;;;;;;;3.08;0.90;;;;;;;;;;5056547;28;20107;-85
2023/03/13 09:40:20;;;;;;;3.75;1.50;;;;;;;;;;5073484;28;20025;-84
2023/03/13 09:42:57;;;;;;;1.13;1.02;;;;;;;;;;5073452;28;20036;-83
2023/03/13 09:45:37;;;;;;;1.20;0.70;;;;;;;;;;5074648;28;20096;-83
2023/03/13 09:48:05;;;;;;;0.70;0.70;;;;;;;;;;5058514;28;20083;-83
2023/03/13 09:50:36;;;;;;;1.00;0.70;;;;;;;;;;5073879;28;20059;-85
2023/03/13 09:53:11;;;;;;;1.52;0.90;;;;;;;;;;5056621;28;20040;-82
2023/03/13 09:55:38;;;;;;;1.25;0.80;;;;;;;;;;5056036;28;20072;-82
2023/03/13 09:58:23;;;;;;;1.20;0.75;;;;;;;;;;5073574;28;20496;-84
2023/03/13 10:01:03;;;;;;;0.70;0.70;;;;;;;;;;5055680;28;20088;-85
2023/03/13 10:03:28;;;;;;;0.90;0.80;;;;;;;;;;5072367;28;20040;-83
2023/03/13 10:05:57;;;;;;;1.52;0.85;;;;;;;;;;5071723;28;20040;-85
2023/03/13 10:08:25;;;;;;;1.23;0.90;;;;;;;;;;5075120;28;20485;-85
2023/03/13 10:11:46;;;;;;;1.13;0.73;;;;;;;;;;5077589;28;20037;-85
2023/03/13 10:14:19;;;;;;;1.15;0.90;;;;;;;;;;5074749;28;20049;-85
2023/03/13 10:17:04;;;;;;;1.27;0.73;;;;;;;;;;5059055;28;20052;-85
2023/03/13 10:19:41;;;;;;;2.15;0.80;;;;;;;;;;5077159;28;20453;-84
2023/03/13 10:22:13;;;;;;;1.63;0.73;;;;;;;;;;5058610;28;20037;-85
2023/03/13 10:24:49;;;;;;;1.83;0.90;;;;;;;;;;5084417;28;20531;-84
2023/03/13 10:27:15;;;;;;;0.60;0.60;;;;;;;;;;5058481;28;20063;-83
2023/03/13 10:29:40;;;;;;;1.02;0.80;;;;;;;;;;5079237;28;20032;-85
2023/03/13 10:32:09;;;;;;;0.77;0.60;;;;;;;;;;5060931;28;20068;-86
2023/03/13 10:34:59;;;;;;;0.70;0.70;;;;;;;;;;5077539;28;20032;-85
2023/03/13 10:37:28;;;;;;;1.05;0.80;;;;;;;;;;5043169;28;20037;-85
2023/03/13 10:39:53;;;;;;;5.07;0.77;;;;;;;;;;5059151;28;20028;-87
2023/03/13 10:42:34;;;;;;;1.02;0.73;;;;;;;;;;5059176;28;20047;-86
2023/03/13 10:45:03;;;;;;;1.73;0.90;;;;;;;;;;5077437;28;20154;-84
2023/03/13 10:47:33;;;;;;;1.33;0.70;;;;;;;;;;5060326;28;20393;-84
2023/03/13 10:50:00;;;;;;;0.90;0.60;;;;;;;;;;5076916;28;20481;-85
2023/03/13 10:52:33;;;;;;;0.93;0.50;;;;;;;;;;5061085;28;20108;-86
2023/03/13 10:55:16;;;;;;;1.15;0.50;;;;;;;;;;5079749;28;20039;-83
2023/03/13 10:57:55;;;;;;;0.68;0.50;;;;;;;;;;5079719;28;20036;-84
2023/03/13 11:00:37;;;;;;;2.65;0.70;;;;;;;;;;5079973;28;20044;-84
2023/03/13 11:03:16;;;;;;;0.63;0.50;;;;;;;;;;5062083;28;20032;-85
2023/03/13 11:05:43;;;;;;;2.83;0.63;;;;;;;;;;5079554;28;20028;-84
2023/03/13 11:08:14;;;;;;;0.68;0.50;;;;;;;;;;5079765;28;20062;-84
2023/03/13 11:10:57;;;;;;;0.70;0.63;;;;;;;;;;5061183;28;20032;-85
2023/03/13 11:13:42;;;;;;;1.40;0.95;;;;;;;;;;5079518;28;20551;-86
2023/03/13 11:16:18;;;;;;;2.03;0.60;;;;;;;;;;5060617;28;20123;-83
2023/03/13 11:19:06;;;;;;;1.25;0.75;;;;;;;;;;5077047;28;20036;-82
2023/03/13 11:21:50;;;;;;;0.70;0.60;;;;;;;;;;5077492;28;20036;-84
2023/03/13 11:24:35;;;;;;;2.78;0.82;;;;;;;;;;5078049;28;20040;-82
2023/03/13 11:27:26;;;;;;;0.88;0.70;;;;;;;;;;5094383;28;20048;-84
2023/03/13 11:30:00;;;;;;;2.97;0.80;;;;;;;;;;5058889;28;20036;-85
2023/03/13 11:32:37;;;;;;;2.30;0.70;;;;;;;;;;5076381;28;20040;-85
2023/03/13 11:35:15;;;;;;;0.63;0.60;;;;;;;;;;5078259;28;20036;-83
2023/03/13 11:37:42;;;;;;;0.88;0.73;;;;;;;;;;5076810;28;20045;-85
2023/03/13 11:40:19;;;;;;;0.85;0.75;;;;;;;;;;5076658;28;20039;-86
2023/03/13 11:42:51;;;;;;;0.57;0.57;;;;;;;;;;5058816;28;20059;-84
2023/03/13 11:45:31;;;;;;;1.17;0.60;;;;;;;;;;5057377;28;20093;-87
2023/03/13 11:48:18;;;;;;;1.52;0.55;;;;;;;;;;5059092;28;20048;-83
2023/03/13 11:50:54;;;;;;;0.70;0.50;;;;;;;;;;5059421;28;20036;-84
2023/03/13 11:53:44;;;;;;;2.20;0.70;;;;;;;;;;5040674;28;20090;-83
2023/03/13 11:56:26;;;;;;;0.73;0.60;;;;;;;;;;5057496;28;20467;-84
2023/03/13 11:59:33;;;;;;;1.42;0.90;;;;;;;;;;5058113;28;20032;-86
2023/03/13 12:02:05;;;;;;;2.05;0.80;;;;;;;;;;5082511;28;20040;-84
2023/03/13 12:04:41;;;;;;;2.13;0.80;;;;;;;;;;5063039;28;20043;-84
2023/03/13 12:07:27;;;;;;;1.05;0.80;;;;;;;;;;5080583;28;20308;-85
2023/03/13 12:10:00;;;;;;;0.80;0.70;;;;;;;;;;5078531;28;20033;-86
2023/03/13 12:12:52;;;;;;;0.80;0.70;;;;;;;;;;5060960;28;20119;-84
2023/03/13 12:15:25;;;;;;;0.90;0.60;;;;;;;;;;5077935;28;20439;-84
2023/03/13 12:17:59;;;;;;;1.02;0.60;;;;;;;;;;5078599;28;20056;-86
2023/03/13 12:20:46;;;;;;;1.50;0.70;;;;;;;;;;5077853;28;20108;-85
2023/03/13 12:23:37;;;;;;;1.55;0.43;;;;;;;;;;5078883;28;20032;-83
2023/03/13 12:26:06;;;;;;;0.70;0.50;;;;;;;;;;5051190;28;20036;-85
2023/03/13 12:28:37;;;;;;;0.88;0.73;;;;;;;;;;5067920;28;20037;-85
2023/03/13 12:31:36;;;;;;;1.70;0.90;;;;;;;;;;5078722;28;20072;-85
2023/03/13 12:34:26;;;;;;;1.33;0.80;;;;;;;;;;5079149;28;20028;-86
2023/03/13 12:37:00;;;;;;;1.15;0.60;;;;;;;;;;5043512;28;20131;-85
2023/03/13 12:39:26;;;;;;;1.13;0.60;;;;;;;;;;5061120;28;20036;-87
2023/03/13 12:42:23;;;;;;;1.23;0.88;;;;;;;;;;5061584;28;20044;-86
2023/03/13 12:44:49;;;;;;;1.38;0.90;;;;;;;;;;5060586;28;20385;-87
2023/03/13 12:47:45;;;;;;;1.58;0.90;;;;;;;;;;5061177;28;20039;-86
2023/03/13 12:50:35;;;;;;;1.10;0.52;;;;;;;;;;5080498;28;20032;-85
2023/03/13 12:53:21;;;;;;;0.88;0.50;;;;;;;;;;5084619;28;20493;-86
2023/03/13 12:56:08;;;;;;;0.50;0.47;;;;;;;;;;5078264;28;20047;-85
2023/03/13 12:58:43;;;;;;;0.50;0.50;;;;;;;;;;5060456;28;20400;-85
2023/03/13 13:01:20;;;;;;;0.63;0.57;;;;;;;;;;5079147;28;20484;-86
2023/03/13 13:03:59;;;;;;;0.75;0.50;;;;;;;;;;5077395;28;20177;-86
2023/03/13 13:06:27;;;;;;;1.27;0.50;;;;;;;;;;5059592;28;20041;-86
2023/03/13 13:08:52;;;;;;;0.68;0.50;;;;;;;;;;5078228;28;20067;-85
2023/03/13 13:11:36;;;;;;;1.13;0.70;;;;;;;;;;5076786;28;20036;-85
2023/03/13 13:14:10;;;;;;;0.60;0.45;;;;;;;;;;5076135;28;20040;-86
2023/03/13 13:16:42;;;;;;;0.80;0.60;;;;;;;;;;5076301;28;20133;-86
2023/03/13 13:19:23;;;;;;;2.63;0.80;;;;;;;;;;5056956;28;20039;-86
2023/03/13 13:22:26;;;;;;;1.42;0.82;;;;;;;;;;5076838;28;20036;-86
2023/03/13 13:24:57;;;;;;;3.38;1.02;;;;;;;;;;5077101;28;20107;-86
2023/03/13 13:27:31;;;;;;;1.70;1.00;;;;;;;;;;5064232;28;20119;-87
2023/03/13 13:29:57;;;;;;;1.80;1.00;;;;;;;;;;5075573;28;20090;-87
2023/03/13 13:32:35;;;;;;;1.70;1.00;;;;;;;;;;5058682;28;20041;-87
2023/03/13 13:35:10;;;;;;;1.27;0.90;;;;;;;;;;5057188;28;20040;-86
2023/03/13 13:37:37;;;;;;;1.05;0.85;;;;;;;;;;5057778;28;20453;-86
2023/03/13 13:40:17;;;;;;;1.65;1.08;;;;;;;;;;5040378;28;20113;-85
2023/03/13 13:42:55;;;;;;;1.90;1.17;;;;;;;;;;5074973;28;20036;-86
2023/03/13 13:45:29;;;;;;;2.00;1.10;;;;;;;;;;5075521;28;20090;-86
2023/03/13 13:48:13;;;;;;;3.45;1.30;;;;;;;;;;5074801;28;20108;-85
2023/03/13 13:50:38;;;;;;;2.35;1.10;;;;;;;;;;5058849;28;20471;-86
2023/03/13 13:53:29;;;;;;;2.05;1.30;;;;;;;;;;5060527;28;20044;-86
2023/03/13 13:55:57;;;;;;;5.38;2.85;;;;;;;;;;5056047;28;20044;-86
2023/03/13 13:58:26;;;;;;;3.63;1.55;;;;;;;;;;5077569;28;20093;-86
2023/03/13 14:00:53;;;;;;;7.07;4.00;;;;;;;;;;5060967;28;20060;-84
2023/03/13 14:03:24;;;;;;;11.25;6.57;;;;;;;;;;5057104;28;20086;-86
2023/03/13 14:06:02;;;;;;;4.55;1.50;;;;;;;;;;5076252;28;20044;-85
2023/03/13 14:08:35;;;;;;;2.95;1.50;;;;;;;;;;5057690;28;20473;-84
2023/03/13 14:11:20;;;;;;;2.10;1.38;;;;;;;;;;5057478;28;20043;-85
2023/03/13 14:14:12;;;;;;;6.65;1.70;;;;;;;;;;5076557;28;20397;-85
2023/03/13 14:16:38;;;;;;;3.80;1.35;;;;;;;;;;5077176;28;20028;-85
2023/03/13 14:19:03;;;;;;;2.17;1.13;;;;;;;;;;5078031;28;20078;-84
2023/03/13 14:21:29;;;;;;;1.90;1.10;;;;;;;;;;5077755;28;20028;-84
2023/03/13 14:23:54;;;;;;;1.80;1.20;;;;;;;;;;5077816;28;20033;-84
2023/03/13 14:26:25;;;;;;;1.90;1.00;;;;;;;;;;5065517;28;20078;-87
2023/03/13 14:28:54;;;;;;;4.05;1.48;;;;;;;;;;5074596;28;20039;-84
2023/03/13 14:31:32;;;;;;;5.82;2.85;;;;;;;;;;5056734;28;20028;-86
2023/03/13 14:34:10;;;;;;;3.63;1.10;;;;;;;;;;5077790;28;20111;-87
2023/03/13 14:36:52;;;;;;;3.85;1.80;;;;;;;;;;5060570;28;20040;-87
2023/03/13 14:39:37;;;;;;;2.45;1.10;;;;;;;;;;5059659;28;20033;-87
2023/03/13 14:42:09;;;;;;;6.05;2.33;;;;;;;;;;5076999;28;20039;-87
2023/03/13 14:44:35;;;;;;;1.85;1.30;;;;;;;;;;5059306;28;20037;-87
2023/03/13 14:47:15;;;;;;;2.08;0.90;;;;;;;;;;5057874;28;20024;-86
2023/03/13 14:49:45;;;;;;;1.77;1.05;;;;;;;;;;5056906;28;20040;-86
2023/03/13 14:52:18;;;;;;;1.83;1.00;;;;;;;;;;5057359;28;20040;-86
2023/03/13 14:55:01;;;;;;;5.78;1.20;;;;;;;;;;5075694;28;20032;-87
2023/03/13 14:57:27;;;;;;;1.10;0.80;;;;;;;;;;5077758;28;20035;-85
2023/03/13 14:59:54;;;;;;;0.95;0.70;;;;;;;;;;5059428;28;20128;-86
2023/03/13 15:02:29;;;;;;;5.32;1.73;;;;;;;;;;5076099;28;20033;-86
2023/03/13 15:05:03;;;;;;;3.33;0.90;;;;;;;;;;5081331;28;20032;-86
2023/03/13 15:07:36;;;;;;;1.95;0.82;;;;;;;;;;5078997;28;20028;-86
2023/03/13 15:10:02;;;;;;;3.30;0.90;;;;;;;;;;5060954;28;20033;-86
2023/03/13 15:12:29;;;;;;;2.03;0.90;;;;;;;;;;5061527;28;20040;-87
2023/03/13 15:14:55;;;;;;;1.45;0.80;;;;;;;;;;5044128;28;20063;-85